Terminal Aerodrome Forecast
Issued by NWS Tampa Bay Area, FL

Home | Current Version | Previous Version | Text Only | Print | Product List | Glossary On
Versions: 1 2 3 4 5 6 7 8 9 10 11 12 13 14 15 16 17 18 19 20 21 22 23 24 25 26 27 28 29 30 31 32
000
FTUS42 KTBW 181900 AAC
TAFTPA
TAF AMD
KTPA 181918Z 1819/1918 18011KT 6SM SHRA SCT030 OVC070
      TEMPO 1819/1821 3SM -TSRA BR SCT015CB BKN020
     FM182300 20011KT P6SM VCSH SCT030 BKN060
     FM190600 21014KT P6SM SCT010 BKN020
     FM191200 23013KT P6SM SCT020 BKN030=

USA.gov is the U.S. government's official web portal to all federal, state and local government web resources and services.